sensor_id;sensor_type;location;lat;lon;timestamp;P1;durP1;ratioP1;P2;durP2;ratioP2
53939;SDS011;39850;43.324;21.916;2023-05-29T00:24:06;8.0;;;7.0;;
53939;SDS011;39850;43.324;21.916;2023-05-29T00:28:43;8.0;;;7.0;;
53939;SDS011;39850;43.324;21.916;2023-05-29T00:33:20;8.0;;;8.0;;
53939;SDS011;39850;43.324;21.916;2023-05-29T00:37:58;8.0;;;8.0;;
53939;SDS011;39850;43.324;21.916;2023-05-29T00:42:35;9.0;;;8.0;;
53939;SDS011;39850;43.324;21.916;2023-05-29T00:47:12;9.0;;;8.0;;
53939;SDS011;39850;43.324;21.916;2023-05-29T00:51:56;9.0;;;8.0;;
53939;SDS011;39850;43.324;21.916;2023-05-29T00:56:35;9.0;;;8.0;;
53939;SDS011;39850;43.324;21.916;2023-05-29T01:01:12;9.0;;;8.0;;
53939;SDS011;39850;43.324;21.916;2023-05-29T01:05:49;9.0;;;8.0;;
53939;SDS011;39850;43.324;21.916;2023-05-29T01:10:27;9.0;;;8.0;;
53939;SDS011;39850;43.324;21.916;2023-05-29T01:44:50;10.0;;;8.0;;
53939;SDS011;39850;43.324;21.916;2023-05-29T01:49:31;10.0;;;8.0;;
53939;SDS011;39850;43.324;21.916;2023-05-29T01:54:10;10.0;;;8.0;;
53939;SDS011;39850;43.324;21.916;2023-05-29T01:58:51;10.0;;;8.0;;
53939;SDS011;39850;43.324;21.916;2023-05-29T02:03:28;9.0;;;8.0;;
53939;SDS011;39850;43.324;21.916;2023-05-29T02:08:05;9.0;;;8.0;;
53939;SDS011;39850;43.324;21.916;2023-05-29T02:12:41;9.0;;;8.0;;
53939;SDS011;39850;43.324;21.916;2023-05-29T02:17:18;9.0;;;8.0;;
53939;SDS011;39850;43.324;21.916;2023-05-29T02:21:55;9.0;;;8.0;;
53939;SDS011;39850;43.324;21.916;2023-05-29T02:26:32;9.0;;;8.0;;
53939;SDS011;39850;43.324;21.916;2023-05-29T02:31:10;9.0;;;8.0;;
53939;SDS011;39850;43.324;21.916;2023-05-29T03:03:30;9.0;;;8.0;;
53939;SDS011;39850;43.324;21.916;2023-05-29T03:08:07;9.0;;;8.0;;
53939;SDS011;39850;43.324;21.916;2023-05-29T03:12:46;9.0;;;8.0;;
53939;SDS011;39850;43.324;21.916;2023-05-29T03:17:23;9.0;;;8.0;;
53939;SDS011;39850;43.324;21.916;2023-05-29T03:22:00;9.0;;;9.0;;
53939;SDS011;39850;43.324;21.916;2023-05-29T03:26:36;9.0;;;9.0;;
53939;SDS011;39850;43.324;21.916;2023-05-29T03:31:13;9.0;;;9.0;;
53939;SDS011;39850;43.324;21.916;2023-05-29T03:35:50;10.0;;;9.0;;
53939;SDS011;39850;43.324;21.916;2023-05-29T03:40:26;10.0;;;9.0;;
53939;SDS011;39850;43.324;21.916;2023-05-29T03:45:06;10.0;;;9.0;;
53939;SDS011;39850;43.324;21.916;2023-05-29T03:49:43;10.0;;;9.0;;
53939;SDS011;39850;43.324;21.916;2023-05-29T04:26:33;10.0;;;8.0;;
53939;SDS011;39850;43.324;21.916;2023-05-29T04:31:10;10.0;;;8.0;;
53939;SDS011;39850;43.324;21.916;2023-05-29T04:35:47;10.0;;;8.0;;
53939;SDS011;39850;43.324;21.916;2023-05-29T04:40:23;10.0;;;8.0;;
53939;SDS011;39850;43.324;21.916;2023-05-29T04:45:00;10.0;;;8.0;;
53939;SDS011;39850;43.324;21.916;2023-05-29T04:49:36;10.0;;;8.0;;
53939;SDS011;39850;43.324;21.916;2023-05-29T04:54:13;10.0;;;8.0;;
53939;SDS011;39850;43.324;21.916;2023-05-29T04:58:49;10.0;;;8.0;;
53939;SDS011;39850;43.324;21.916;2023-05-29T05:03:25;9.0;;;8.0;;
53939;SDS011;39850;43.324;21.916;2023-05-29T05:08:02;9.0;;;8.0;;
53939;SDS011;39850;43.324;21.916;2023-05-29T05:44:57;8.0;;;7.0;;
53939;SDS011;39850;43.324;21.916;2023-05-29T05:49:34;8.0;;;7.0;;
53939;SDS011;39850;43.324;21.916;2023-05-29T05:54:10;8.0;;;7.0;;
53939;SDS011;39850;43.324;21.916;2023-05-29T05:58:47;8.0;;;7.0;;
53939;SDS011;39850;43.324;21.916;2023-05-29T06:03:24;8.0;;;7.0;;
53939;SDS011;39850;43.324;21.916;2023-05-29T06:08:00;8.0;;;7.0;;
53939;SDS011;39850;43.324;21.916;2023-05-29T06:12:37;8.0;;;7.0;;
53939;SDS011;39850;43.324;21.916;2023-05-29T06:17:14;8.0;;;7.0;;
53939;SDS011;39850;43.324;21.916;2023-05-29T06:21:50;8.0;;;7.0;;
53939;SDS011;39850;43.324;21.916;2023-05-29T06:26:27;8.0;;;7.0;;
53939;SDS011;39850;43.324;21.916;2023-05-29T06:31:03;8.0;;;7.0;;
53939;SDS011;39850;43.324;21.916;2023-05-29T07:03:17;10.0;;;9.0;;
53939;SDS011;39850;43.324;21.916;2023-05-29T07:07:53;10.0;;;9.0;;
53939;SDS011;39850;43.324;21.916;2023-05-29T07:12:30;10.0;;;9.0;;
53939;SDS011;39850;43.324;21.916;2023-05-29T07:17:06;10.0;;;9.0;;
53939;SDS011;39850;43.324;21.916;2023-05-29T07:21:43;10.0;;;9.0;;
53939;SDS011;39850;43.324;21.916;2023-05-29T07:26:19;10.0;;;9.0;;
53939;SDS011;39850;43.324;21.916;2023-05-29T07:30:56;10.0;;;9.0;;
53939;SDS011;39850;43.324;21.916;2023-05-29T07:35:32;10.0;;;8.0;;
53939;SDS011;39850;43.324;21.916;2023-05-29T07:40:10;10.0;;;8.0;;
53939;SDS011;39850;43.324;21.916;2023-05-29T07:44:47;10.0;;;8.0;;
53939;SDS011;39850;43.324;21.916;2023-05-29T07:49:23;10.0;;;8.0;;
53939;SDS011;39850;43.324;21.916;2023-05-29T08:07:46;9.0;;;8.0;;
53939;SDS011;39850;43.324;21.916;2023-05-29T08:12:22;9.0;;;8.0;;
53939;SDS011;39850;43.324;21.916;2023-05-29T08:16:59;9.0;;;8.0;;
53939;SDS011;39850;43.324;21.916;2023-05-29T08:21:35;9.0;;;8.0;;
53939;SDS011;39850;43.324;21.916;2023-05-29T08:26:12;9.0;;;8.0;;
53939;SDS011;39850;43.324;21.916;2023-05-29T08:30:48;9.0;;;8.0;;
53939;SDS011;39850;43.324;21.916;2023-05-29T09:17:14;8.0;;;7.0;;
53939;SDS011;39850;43.324;21.916;2023-05-29T09:21:51;8.0;;;7.0;;
53939;SDS011;39850;43.324;21.916;2023-05-29T09:26:28;8.0;;;7.0;;
53939;SDS011;39850;43.324;21.916;2023-05-29T09:31:16;8.0;;;7.0;;
53939;SDS011;39850;43.324;21.916;2023-05-29T09:35:52;8.0;;;7.0;;
53939;SDS011;39850;43.324;21.916;2023-05-29T09:40:36;8.0;;;7.0;;
53939;SDS011;39850;43.324;21.916;2023-05-29T09:45:18;8.0;;;7.0;;
53939;SDS011;39850;43.324;21.916;2023-05-29T10:38:20;9.0;;;8.0;;
53939;SDS011;39850;43.324;21.916;2023-05-29T10:42:57;9.0;;;8.0;;
53939;SDS011;39850;43.324;21.916;2023-05-29T10:47:34;9.0;;;8.0;;
53939;SDS011;39850;43.324;21.916;2023-05-29T10:52:11;9.0;;;8.0;;
53939;SDS011;39850;43.324;21.916;2023-05-29T10:57:01;9.0;;;8.0;;
53939;SDS011;39850;43.324;21.916;2023-05-29T11:01:40;9.0;;;8.0;;
53939;SDS011;39850;43.324;21.916;2023-05-29T12:07:20;8.0;;;6.0;;
53939;SDS011;39850;43.324;21.916;2023-05-29T12:12:05;8.0;;;6.0;;
53939;SDS011;39850;43.324;21.916;2023-05-29T12:16:43;8.0;;;6.0;;
53939;SDS011;39850;43.324;21.916;2023-05-29T12:21:23;8.0;;;6.0;;
53939;SDS011;39850;43.324;21.916;2023-05-29T12:26:01;8.0;;;6.0;;
53939;SDS011;39850;43.324;21.916;2023-05-29T12:30:38;8.0;;;6.0;;
53939;SDS011;39850;43.324;21.916;2023-05-29T12:35:24;8.0;;;6.0;;
53939;SDS011;39850;43.324;21.916;2023-05-29T13:40:26;8.0;;;7.0;;
53939;SDS011;39850;43.324;21.916;2023-05-29T13:45:09;8.0;;;7.0;;
53939;SDS011;39850;43.324;21.916;2023-05-29T13:49:46;8.0;;;7.0;;
53939;SDS011;39850;43.324;21.916;2023-05-29T13:54:22;8.0;;;7.0;;
53939;SDS011;39850;43.324;21.916;2023-05-29T13:58:59;8.0;;;7.0;;
53939;SDS011;39850;43.324;21.916;2023-05-29T14:03:35;8.0;;;7.0;;
53939;SDS011;39850;43.324;21.916;2023-05-29T15:58:48;9.0;;;7.0;;
53939;SDS011;39850;43.324;21.916;2023-05-29T16:03:24;9.0;;;7.0;;
53939;SDS011;39850;43.324;21.916;2023-05-29T16:08:01;10.0;;;7.0;;
53939;SDS011;39850;43.324;21.916;2023-05-29T16:12:38;10.0;;;7.0;;
53939;SDS011;39850;43.324;21.916;2023-05-29T16:17:15;9.0;;;7.0;;
53939;SDS011;39850;43.324;21.916;2023-05-29T16:21:52;9.0;;;7.0;;
53939;SDS011;39850;43.324;21.916;2023-05-29T16:26:30;9.0;;;7.0;;
53939;SDS011;39850;43.324;21.916;2023-05-29T16:31:06;10.0;;;8.0;;
53939;SDS011;39850;43.324;21.916;2023-05-29T16:35:43;10.0;;;8.0;;
53939;SDS011;39850;43.324;21.916;2023-05-29T16:40:20;9.0;;;8.0;;
53939;SDS011;39850;43.324;21.916;2023-05-29T16:44:56;9.0;;;8.0;;
53939;SDS011;39850;43.324;21.916;2023-05-29T18:40:12;9.0;;;8.0;;
53939;SDS011;39850;43.324;21.916;2023-05-29T18:44:49;9.0;;;8.0;;
53939;SDS011;39850;43.324;21.916;2023-05-29T18:49:26;10.0;;;8.0;;
53939;SDS011;39850;43.324;21.916;2023-05-29T18:54:04;10.0;;;8.0;;
53939;SDS011;39850;43.324;21.916;2023-05-29T18:58:41;10.0;;;8.0;;
53939;SDS011;39850;43.324;21.916;2023-05-29T19:03:17;10.0;;;8.0;;
53939;SDS011;39850;43.324;21.916;2023-05-29T19:07:54;10.0;;;8.0;;
53939;SDS011;39850;43.324;21.916;2023-05-29T19:12:31;10.0;;;8.0;;
53939;SDS011;39850;43.324;21.916;2023-05-29T19:17:08;10.0;;;8.0;;
53939;SDS011;39850;43.324;21.916;2023-05-29T19:21:45;10.0;;;8.0;;
53939;SDS011;39850;43.324;21.916;2023-05-29T19:26:23;10.0;;;8.0;;
53939;SDS011;39850;43.324;21.916;2023-05-29T19:58:40;10.0;;;9.0;;
53939;SDS011;39850;43.324;21.916;2023-05-29T20:03:16;10.0;;;9.0;;
53939;SDS011;39850;43.324;21.916;2023-05-29T20:07:53;12.0;;;10.0;;
53939;SDS011;39850;43.324;21.916;2023-05-29T20:12:29;12.0;;;10.0;;
53939;SDS011;39850;43.324;21.916;2023-05-29T20:17:06;12.0;;;10.0;;
53939;SDS011;39850;43.324;21.916;2023-05-29T20:21:42;12.0;;;10.0;;
53939;SDS011;39850;43.324;21.916;2023-05-29T20:26:19;12.0;;;10.0;;
53939;SDS011;39850;43.324;21.916;2023-05-29T20:30:56;14.0;;;12.0;;
53939;SDS011;39850;43.324;21.916;2023-05-29T20:35:32;14.0;;;12.0;;
53939;SDS011;39850;43.324;21.916;2023-05-29T21:21:43;21.0;;;21.0;;
53939;SDS011;39850;43.324;21.916;2023-05-29T21:26:20;21.0;;;21.0;;
53939;SDS011;39850;43.324;21.916;2023-05-29T21:30:57;16.0;;;14.0;;
53939;SDS011;39850;43.324;21.916;2023-05-29T21:35:34;16.0;;;14.0;;
53939;SDS011;39850;43.324;21.916;2023-05-29T21:40:11;11.0;;;8.0;;
53939;SDS011;39850;43.324;21.916;2023-05-29T21:44:49;11.0;;;8.0;;
53939;SDS011;39850;43.324;21.916;2023-05-29T21:49:26;10.0;;;8.0;;
53939;SDS011;39850;43.324;21.916;2023-05-29T21:54:04;10.0;;;8.0;;
53939;SDS011;39850;43.324;21.916;2023-05-29T21:58:42;10.0;;;8.0;;
53939;SDS011;39850;43.324;21.916;2023-05-29T22:03:20;10.0;;;8.0;;
53939;SDS011;39850;43.324;21.916;2023-05-29T22:07:56;10.0;;;8.0;;
53939;SDS011;39850;43.324;21.916;2023-05-29T22:40:13;9.0;;;8.0;;
53939;SDS011;39850;43.324;21.916;2023-05-29T22:44:49;9.0;;;8.0;;
53939;SDS011;39850;43.324;21.916;2023-05-29T22:49:25;10.0;;;8.0;;
53939;SDS011;39850;43.324;21.916;2023-05-29T22:54:02;10.0;;;8.0;;
53939;SDS011;39850;43.324;21.916;2023-05-29T22:58:38;10.0;;;8.0;;
53939;SDS011;39850;43.324;21.916;2023-05-29T23:03:15;10.0;;;8.0;;
53939;SDS011;39850;43.324;21.916;2023-05-29T23:07:51;10.0;;;8.0;;
53939;SDS011;39850;43.324;21.916;2023-05-29T23:12:28;10.0;;;8.0;;
53939;SDS011;39850;43.324;21.916;2023-05-29T23:17:05;10.0;;;8.0;;
53939;SDS011;39850;43.324;21.916;2023-05-29T23:21:41;10.0;;;8.0;;
53939;SDS011;39850;43.324;21.916;2023-05-29T23:26:18;10.0;;;8.0;;
53939;SDS011;39850;43.324;21.916;2023-05-29T23:58:38;11.0;;;8.0;;
